Terminal Aerodrome Forecast
Issued by NWS

Home | Current Version | Previous Version | Text Only | Print | Product List | Glossary On
Versions: 1 2 3 4 5 6 7 8 9 10 11 12 13 14 15 16 17 18 19 20 21 22 23 24 25 26 27 28 29 30 31 32 33 34 35 36
000
FTAK31 PAFA 302334
TAFAOM
TAF
PAOM 302334Z 3100/3124 30020G30KT P6SM VCSH BKN035 BKN100 BKN200
     FM310300 30020KT P6SM SCT035 BKN050 BKN100
     FM310600 30015KT P6SM SCT035 BKN050 BKN100
     FM310900 30008KT P6SM SCT035 BKN050 BKN100=

USA.gov is the U.S. government's official web portal to all federal, state and local government web resources and services.